Time;durP1;ratioP1;P1;durP2;ratioP2;P2;SDS_P1;SDS_P2;PMS_P1;PMS_P2;Temp;Humidity;BMP_temperature;BMP_pressure;BME280_temperature;BME280_humidity;BME280_pressure;Samples;Min_cycle;Max_cycle;Signal;HPM_P1;HPM_P2
2022/01/29 00:02:19;;;;;;;13.88;7.28;;;;;;;3.27;83.60;101381.49;2952513;80;21244;-70
2022/01/29 00:06:21;;;;;;;15.65;6.12;;;;;;;3.25;83.57;101378.53;2951076;80;21596;-70
2022/01/29 00:10:22;;;;;;;16.48;6.85;;;;;;;3.22;83.70;101362.39;2945986;80;21007;-70
2022/01/29 00:14:24;;;;;;;14.60;6.53;;;;;;;3.20;83.81;101372.55;3068542;77;20995;-70
2022/01/29 00:18:25;;;;;;;19.77;8.13;;;;;;;3.15;83.90;101371.41;3068641;77;21050;-70
2022/01/29 00:22:27;;;;;;;21.10;8.28;;;;;;;3.12;84.29;101360.52;3068423;77;21054;-70
2022/01/29 00:26:29;;;;;;;12.30;5.92;;;;;;;3.09;84.71;101350.55;3068893;77;21583;-70
2022/01/29 00:30:37;;;;;;;17.02;7.97;;;;;;;3.10;84.63;101347.89;3068896;77;20972;-70
2022/01/29 00:34:34;;;;;;;15.30;7.53;;;;;;;3.15;84.71;101346.42;3067124;77;21034;-70
2022/01/29 00:38:35;;;;;;;20.45;6.50;;;;;;;3.20;84.75;101350.19;3068303;77;20953;-70
2022/01/29 00:42:37;;;;;;;17.73;7.20;;;;;;;3.24;84.64;101339.52;3068334;77;20940;-70
2022/01/29 00:46:40;;;;;;;22.65;6.72;;;;;;;3.25;84.58;101345.66;3068743;77;21392;-69
2022/01/29 00:50:42;;;;;;;15.55;7.03;;;;;;;3.29;84.35;101344.16;3068979;77;20983;-69
2022/01/29 00:54:45;;;;;;;21.42;8.10;;;;;;;3.32;84.21;101344.52;3068726;77;21616;-70
2022/01/29 00:58:46;;;;;;;25.68;7.55;;;;;;;3.29;84.46;101334.95;3068658;77;20991;-71
2022/01/29 01:02:48;;;;;;;20.10;8.50;;;;;;;3.21;84.68;101329.11;3069150;77;20988;-70
2022/01/29 01:06:50;;;;;;;25.48;8.15;;;;;;;3.15;85.07;101320.13;3068351;77;20991;-70
2022/01/29 01:10:51;;;;;;;22.60;7.78;;;;;;;3.10;85.52;101317.66;3068761;77;20979;-70
2022/01/29 01:14:53;;;;;;;13.55;5.70;;;;;;;3.09;85.83;101318.56;3068728;77;20964;-70
2022/01/29 01:18:54;;;;;;;16.30;6.35;;;;;;;3.10;85.89;101320.28;3068855;77;21026;-70
2022/01/29 01:22:56;;;;;;;20.08;8.28;;;;;;;3.08;86.03;101328.68;3069186;77;21518;-70
2022/01/29 01:26:59;;;;;;;20.72;8.83;;;;;;;3.11;86.05;101316.73;3068905;77;21373;-70
2022/01/29 01:31:00;;;;;;;18.07;7.67;;;;;;;3.12;86.20;101316.27;3068870;77;21368;-70
2022/01/29 01:35:18;;;;;;;15.43;6.50;;;;;;;3.12;86.15;101307.94;3068674;77;21500;-70
2022/01/29 01:39:14;;;;;;;18.42;6.85;;;;;;;3.18;86.00;101310.82;3065673;77;20999;-70
2022/01/29 01:43:14;;;;;;;16.50;6.15;;;;;;;3.20;85.92;101316.88;3068106;76;21427;-70
2022/01/29 01:47:17;;;;;;;17.55;4.97;;;;;;;3.25;85.75;101303.58;3068597;77;21429;-70
2022/01/29 01:51:19;;;;;;;15.90;6.15;;;;;;;3.26;85.74;101294.78;3068774;77;21051;-69
2022/01/29 01:55:22;;;;;;;17.85;5.92;;;;;;;3.29;85.60;101284.98;3069153;77;20963;-69
2022/01/29 01:59:31;;;;;;;14.55;6.42;;;;;;;3.32;85.27;101293.68;3061141;77;21051;-69
2022/01/29 02:03:33;;;;;;;23.10;7.10;;;;;;;3.30;85.23;101288.49;3068892;77;21390;-69
2022/01/29 02:07:36;;;;;;;16.73;4.97;;;;;;;3.31;85.04;101276.19;3064625;77;21061;-70
2022/01/29 02:11:39;;;;;;;13.00;6.35;;;;;;;3.28;84.96;101272.75;3056116;77;21026;-70
2022/01/29 02:15:41;;;;;;;20.80;7.47;;;;;;;3.25;84.83;101261.51;3028311;77;20991;-70
2022/01/29 02:19:43;;;;;;;10.68;5.87;;;;;;;3.24;84.68;101259.77;3055977;77;21006;-70
2022/01/29 02:23:44;;;;;;;15.63;5.87;;;;;;;3.19;84.47;101256.00;3055953;77;21390;-70
2022/01/29 02:27:46;;;;;;;28.25;6.25;;;;;;;3.12;84.78;101245.28;3055807;77;21006;-70
2022/01/29 02:31:54;;;;;;;20.75;6.42;;;;;;;3.06;84.97;101235.86;3055886;77;21041;-70
2022/01/29 02:35:57;;;;;;;23.60;5.45;;;;;;;3.06;84.88;101223.16;3055309;77;20991;-70
2022/01/29 02:39:58;;;;;;;13.38;6.17;;;;;;;3.07;84.87;101215.67;3056041;77;21002;-70
2022/01/29 02:44:04;;;;;;;14.90;5.67;;;;;;;3.06;84.67;101213.95;3055572;77;21041;-70
2022/01/29 02:48:04;;;;;;;18.05;5.70;;;;;;;3.02;85.02;101214.98;3055072;77;20994;-70
2022/01/29 02:52:06;;;;;;;21.50;7.15;;;;;;;3.06;85.08;101210.02;2985210;79;20978;-70
2022/01/29 02:56:09;;;;;;;10.90;5.15;;;;;;;3.08;85.32;101199.86;2952767;80;21049;-70
2022/01/29 03:00:13;;;;;;;16.57;5.85;;;;;;;3.13;85.31;101194.41;2952488;80;21006;-70
2022/01/29 03:04:14;;;;;;;22.15;6.60;;;;;;;3.15;85.34;101192.61;2952661;80;21092;-70
2022/01/29 03:08:16;;;;;;;17.77;7.35;;;;;;;3.20;85.17;101181.91;2953317;80;21018;-70
2022/01/29 03:12:18;;;;;;;19.17;7.28;;;;;;;3.28;84.80;101184.66;2974664;79;21018;-70
2022/01/29 03:16:20;;;;;;;17.75;6.75;;;;;;;3.35;84.46;101180.03;2974798;80;20997;-70
2022/01/29 03:20:21;;;;;;;15.88;5.33;;;;;;;3.39;84.17;101181.63;2975295;80;21029;-70
2022/01/29 03:24:25;;;;;;;13.72;6.83;;;;;;;3.41;83.97;101175.01;2975316;80;21007;-70
2022/01/29 03:28:29;;;;;;;15.30;5.35;;;;;;;3.43;83.97;101170.06;2975398;80;21026;-70
2022/01/29 03:32:31;;;;;;;11.35;5.83;;;;;;;3.42;84.08;101162.25;2974210;79;21010;-70
2022/01/29 03:36:32;;;;;;;14.83;6.85;;;;;;;3.41;84.24;101156.12;2973559;79;21053;-70
2022/01/29 03:40:35;;;;;;;15.90;6.58;;;;;;;3.42;84.48;101152.57;2975540;80;21006;-70
2022/01/29 03:44:36;;;;;;;7.90;4.90;;;;;;;3.47;84.66;101145.83;2975384;80;21074;-70
2022/01/29 03:48:38;;;;;;;12.43;5.08;;;;;;;3.54;84.78;101134.61;2974680;80;21467;-70
2022/01/29 03:52:40;;;;;;;11.93;5.67;;;;;;;3.61;84.47;101123.40;2974781;80;21077;-70
2022/01/29 03:56:42;;;;;;;19.52;6.45;;;;;;;3.70;84.31;101123.02;2974977;80;21566;-70
2022/01/29 04:00:43;;;;;;;18.55;6.33;;;;;;;3.79;83.68;101106.88;2974577;80;21049;-70
2022/01/29 04:04:45;;;;;;;16.75;5.95;;;;;;;3.85;82.97;101106.62;2973823;80;20986;-70
2022/01/29 04:08:47;;;;;;;25.30;6.03;;;;;;;3.94;82.55;101091.39;2953813;80;21034;-70
2022/01/29 04:12:51;;;;;;;18.25;5.55;;;;;;;3.98;82.30;101083.75;2930682;81;21066;-70
2022/01/29 04:16:51;;;;;;;28.17;5.25;;;;;;;3.97;81.91;101082.88;2929897;81;21018;-70
2022/01/29 04:20:53;;;;;;;15.38;6.03;;;;;;;4.01;81.81;101073.09;2930949;81;21062;-70
2022/01/29 04:29:08;;;;;;;18.25;5.75;;;;;;;4.11;81.33;101061.23;3031886;77;22843;-69
2022/01/29 04:33:28;;;;;;;11.40;6.03;;;;;;;4.07;81.02;101055.71;2964461;79;21034;-69
2022/01/29 04:37:18;;;;;;;16.32;5.67;;;;;;;4.07;80.81;101047.81;2962917;79;21272;-69
2022/01/29 04:41:21;;;;;;;18.45;5.78;;;;;;;4.09;80.60;101038.06;2964474;79;21078;-69
2022/01/29 04:45:23;;;;;;;19.25;5.75;;;;;;;4.07;80.71;101038.59;2964485;79;21064;-69
2022/01/29 04:49:24;;;;;;;19.60;7.03;;;;;;;4.06;80.61;101036.88;2964714;80;21006;-69
2022/01/29 04:53:26;;;;;;;19.25;6.95;;;;;;;4.14;80.45;101023.39;2964287;80;21007;-69
2022/01/29 04:57:28;;;;;;;16.15;6.45;;;;;;;4.12;80.38;101014.23;2963170;80;21058;-69
2022/01/29 05:01:29;;;;;;;21.70;6.47;;;;;;;4.16;80.04;101022.02;2964395;80;21057;-69
2022/01/29 05:05:31;;;;;;;11.93;4.97;;;;;;;4.19;79.98;101016.63;2964294;79;21094;-69
2022/01/29 05:09:33;;;;;;;18.73;6.80;;;;;;;4.19;79.73;101004.77;2963458;80;20971;-69
2022/01/29 05:13:37;;;;;;;18.50;5.15;;;;;;;4.23;79.40;101001.07;2964572;80;21003;-69
2022/01/29 05:30:24;;;;;;;29.23;5.95;;;;;;;4.36;78.30;100992.16;2970335;79;21002;-69
2022/01/29 05:34:25;;;;;;;25.72;6.87;;;;;;;4.41;78.15;100987.53;2970111;80;20979;-69
2022/01/29 05:38:27;;;;;;;25.72;8.80;;;;;;;4.44;77.44;100976.89;2970102;79;21600;-69
2022/01/29 05:42:29;;;;;;;11.40;5.10;;;;;;;4.45;77.30;100959.28;2969082;79;21042;-69
2022/01/29 05:46:30;;;;;;;17.90;5.33;;;;;;;4.42;76.83;100941.38;2969077;80;21019;-68
2022/01/29 05:50:32;;;;;;;21.17;5.80;;;;;;;4.48;76.56;100936.30;2969479;80;21015;-68
2022/01/29 05:54:33;;;;;;;19.92;6.33;;;;;;;4.53;76.26;100927.70;2969707;80;21003;-68
2022/01/29 05:58:36;;;;;;;12.40;5.37;;;;;;;4.56;75.99;100925.41;2969444;80;20991;-68
2022/01/29 06:02:38;;;;;;;14.10;5.47;;;;;;;4.60;75.47;100910.28;2969257;80;21050;-68
2022/01/29 06:06:39;;;;;;;15.30;6.05;;;;;;;4.64;75.13;100903.49;2969474;80;21038;-68
2022/01/29 06:10:41;;;;;;;22.65;6.85;;;;;;;4.64;75.07;100896.06;2969229;80;21058;-69
2022/01/29 06:14:43;;;;;;;11.65;5.30;;;;;;;4.68;74.65;100898.94;2969349;79;21491;-69
2022/01/29 06:18:44;;;;;;;10.88;4.78;;;;;;;4.79;74.78;100897.11;2969385;80;21038;-69
2022/01/29 06:22:46;;;;;;;25.77;5.12;;;;;;;4.77;73.50;100885.79;2969179;80;21066;-68
2022/01/29 06:26:48;;;;;;;11.63;5.30;;;;;;;4.87;74.06;100875.17;2970239;79;21015;-69
2022/01/29 06:30:49;;;;;;;9.40;4.62;;;;;;;4.85;73.70;100867.80;2973772;79;21039;-69
2022/01/29 06:34:51;;;;;;;8.65;4.40;;;;;;;4.91;73.85;100852.16;2973279;79;21603;-69
2022/01/29 06:38:52;;;;;;;7.78;4.65;;;;;;;4.94;74.02;100852.00;2973942;80;21066;-69
2022/01/29 06:42:56;;;;;;;11.05;3.62;;;;;;;4.97;74.01;100836.90;2973607;80;21030;-69
2022/01/29 06:46:57;;;;;;;12.15;5.20;;;;;;;5.00;74.12;100835.42;2973961;80;21870;-69
2022/01/29 06:50:59;;;;;;;21.07;5.97;;;;;;;5.06;74.09;100834.27;2974045;79;20999;-69
2022/01/29 06:55:00;;;;;;;9.43;5.53;;;;;;;5.14;74.13;100833.89;2973608;80;21083;-69
2022/01/29 06:59:02;;;;;;;12.95;5.03;;;;;;;5.16;73.99;100824.11;2973544;80;20939;-69
2022/01/29 07:03:03;;;;;;;12.85;5.10;;;;;;;5.23;74.30;100819.38;2973279;79;20990;-69
2022/01/29 07:07:05;;;;;;;14.28;5.62;;;;;;;5.21;74.33;100813.30;2973722;79;21034;-69
2022/01/29 07:11:07;;;;;;;12.33;5.72;;;;;;;5.20;75.19;100812.47;2973703;80;21594;-69
2022/01/29 07:15:10;;;;;;;7.42;4.47;;;;;;;5.21;75.71;100808.03;2973697;80;20986;-69
2022/01/29 07:19:12;;;;;;;8.95;5.17;;;;;;;5.24;76.25;100807.41;2973283;80;21030;-69
2022/01/29 07:23:13;;;;;;;14.10;4.65;;;;;;;5.25;76.28;100803.84;2973631;80;20964;-69
2022/01/29 07:27:16;;;;;;;6.12;4.40;;;;;;;5.28;76.61;100812.91;2973820;79;21062;-69
2022/01/29 07:31:17;;;;;;;18.02;5.58;;;;;;;5.36;77.11;100810.37;2973664;80;20956;-69
2022/01/29 07:35:19;;;;;;;9.53;4.47;;;;;;;5.37;77.62;100799.72;2974017;79;21723;-69
2022/01/29 07:39:23;;;;;;;7.37;4.35;;;;;;;5.32;79.24;100786.41;2973309;79;21018;-69
2022/01/29 07:43:24;;;;;;;11.43;6.40;;;;;;;5.40;79.50;100782.89;2973459;79;21016;-69
2022/01/29 07:47:26;;;;;;;8.23;5.20;;;;;;;5.43;79.70;100784.91;2973097;79;21015;-69
2022/01/29 07:51:27;;;;;;;25.55;4.80;;;;;;;5.48;79.78;100784.64;2973508;80;21007;-69
2022/01/29 07:55:30;;;;;;;13.83;4.87;;;;;;;5.57;79.55;100767.47;2973564;80;21682;-69
2022/01/29 07:59:31;;;;;;;6.87;3.70;;;;;;;5.67;79.33;100756.83;2974539;79;20990;-69
2022/01/29 08:03:33;;;;;;;9.00;3.75;;;;;;;5.68;79.20;100744.46;2974031;79;21065;-69
2022/01/29 08:07:34;;;;;;;8.95;4.17;;;;;;;5.74;79.42;100739.33;2973413;80;20995;-69
2022/01/29 08:11:36;;;;;;;10.43;3.80;;;;;;;5.80;79.55;100745.13;2973305;78;21022;-69
2022/01/29 08:15:38;;;;;;;11.88;5.25;;;;;;;5.81;79.60;100735.44;2973017;79;21054;-69
2022/01/29 08:19:40;;;;;;;15.18;6.62;;;;;;;5.82;80.05;100721.30;2973144;80;21042;-69
2022/01/29 08:23:42;;;;;;;11.95;6.85;;;;;;;5.89;80.27;100708.13;2973749;79;21010;-69
2022/01/29 08:27:43;;;;;;;9.10;6.78;;;;;;;5.86;79.83;100705.66;2971989;79;21412;-69
2022/01/29 08:31:45;;;;;;;11.57;5.35;;;;;;;5.85;79.64;100698.67;2969205;80;20999;-68
2022/01/29 08:35:47;;;;;;;13.68;5.20;;;;;;;5.79;80.21;100695.03;2969491;79;21007;-69
2022/01/29 08:39:48;;;;;;;7.20;4.33;;;;;;;5.80;79.98;100683.08;2968851;79;20987;-69
2022/01/29 08:43:50;;;;;;;7.15;3.83;;;;;;;5.85;80.68;100673.11;2968939;80;21528;-69
2022/01/29 08:47:51;;;;;;;7.78;4.35;;;;;;;5.88;80.81;100669.91;2969312;80;21011;-69
2022/01/29 08:51:53;;;;;;;11.28;4.25;;;;;;;5.84;81.25;100665.30;2969346;80;21527;-69
2022/01/29 08:55:55;;;;;;;9.40;3.42;;;;;;;5.89;81.44;100661.92;2968742;79;21019;-69
2022/01/29 08:59:56;;;;;;;10.98;4.65;;;;;;;5.81;81.84;100646.98;2968884;79;20963;-69
2022/01/29 09:03:59;;;;;;;5.62;3.67;;;;;;;5.81;82.30;100645.19;2968566;79;21015;-69
2022/01/29 09:08:01;;;;;;;6.92;2.77;;;;;;;5.83;82.49;100647.75;2967558;80;21109;-68
2022/01/29 09:12:04;;;;;;;6.05;3.15;;;;;;;5.79;82.68;100640.46;2968602;80;21393;-68
2022/01/29 09:16:05;;;;;;;8.70;4.08;;;;;;;5.82;82.72;100636.81;2968769;80;21050;-69
2022/01/29 09:20:10;;;;;;;6.00;3.62;;;;;;;5.76;83.06;100631.86;2968252;79;20995;-69
2022/01/29 09:24:12;;;;;;;5.17;3.27;;;;;;;5.76;83.78;100630.53;2968572;79;20990;-69
2022/01/29 09:28:14;;;;;;;5.47;2.58;;;;;;;5.61;84.45;100617.73;2969123;79;21035;-69
2022/01/29 09:32:16;;;;;;;7.20;4.50;;;;;;;5.55;85.73;100613.19;2972379;79;20987;-69
2022/01/29 09:36:17;;;;;;;7.15;4.05;;;;;;;5.61;85.98;100606.73;2972026;79;21053;-68
2022/01/29 09:40:19;;;;;;;9.08;4.45;;;;;;;5.60;86.52;100604.16;2972985;80;21454;-68
2022/01/29 09:44:22;;;;;;;5.95;3.45;;;;;;;5.55;86.83;100603.95;2973072;79;21038;-68
2022/01/29 09:48:26;;;;;;;9.18;4.10;;;;;;;5.53;87.39;100593.95;2971498;79;21524;-68
2022/01/29 09:52:28;;;;;;;9.58;5.15;;;;;;;5.55;87.47;100590.77;2973322;80;20995;-69
2022/01/29 09:56:30;;;;;;;8.25;4.05;;;;;;;5.55;87.91;100580.20;2961056;79;21022;-69
2022/01/29 10:00:33;;;;;;;8.00;5.22;;;;;;;5.56;88.32;100572.67;2919166;81;21022;-69
2022/01/29 10:04:53;;;;;;;8.20;4.75;;;;;;;5.50;88.71;100561.15;2918704;80;20995;-68
2022/01/29 10:08:56;;;;;;;4.15;3.62;;;;;;;5.61;89.02;100560.99;2917377;81;21034;-69
2022/01/29 10:12:57;;;;;;;7.12;4.30;;;;;;;5.64;88.88;100553.77;2918704;81;21612;-69
2022/01/29 10:17:02;;;;;;;5.30;4.10;;;;;;;5.71;89.13;100547.67;2918860;80;21034;-69
2022/01/29 10:21:23;;;;;;;19.82;3.85;;;;;;;5.75;89.26;100543.91;2919245;80;21002;-70
2022/01/29 10:25:42;;;;;;;3.92;3.30;;;;;;;5.80;89.03;100539.20;2918663;81;21022;-70
2022/01/29 10:29:40;;;;;;;4.35;3.12;;;;;;;5.83;88.63;100528.95;2911931;80;20995;-70
2022/01/29 10:33:42;;;;;;;9.18;4.00;;;;;;;5.88;88.95;100524.70;2909968;81;21023;-70
2022/01/29 10:37:50;;;;;;;5.65;3.37;;;;;;;5.84;88.55;100499.80;2910828;81;21030;-68
2022/01/29 10:41:54;;;;;;;5.58;3.35;;;;;;;5.84;88.83;100504.25;2907213;81;20995;-69
2022/01/29 10:45:57;;;;;;;2.87;1.92;;;;;;;5.82;89.00;100492.45;2946159;80;21015;-68
2022/01/29 10:50:05;;;;;;;3.00;2.50;;;;;;;5.81;89.13;100488.11;2961326;80;21610;-68
2022/01/29 10:54:21;;;;;;;3.25;1.80;;;;;;;5.76;90.02;100482.25;2961790;79;21015;-69
2022/01/29 10:58:25;;;;;;;3.52;1.65;;;;;;;5.74;90.32;100473.58;2961653;79;21635;-69
2022/01/29 11:02:30;;;;;;;2.67;2.20;;;;;;;5.70;90.46;100464.15;2961591;79;21043;-71
2022/01/29 11:06:35;;;;;;;2.90;1.87;;;;;;;5.84;89.54;100447.00;2960887;80;21031;-70
2022/01/29 11:10:34;;;;;;;2.35;1.37;;;;;;;5.79;89.44;100439.83;2933681;79;21051;-67
2022/01/29 11:14:38;;;;;;;1.77;1.25;;;;;;;5.83;89.49;100429.46;2906660;80;21109;-68
2022/01/29 11:18:39;;;;;;;2.08;1.32;;;;;;;5.86;89.73;100413.92;2902832;81;21063;-68
2022/01/29 11:22:44;;;;;;;1.87;0.88;;;;;;;5.84;89.88;100400.80;2901775;81;20987;-68
2022/01/29 11:26:46;;;;;;;3.25;2.47;;;;;;;5.89;90.55;100391.75;2902605;80;21011;-69
2022/01/29 11:31:14;;;;;;;5.67;3.20;;;;;;;5.96;90.34;100382.04;2910700;80;21749;-68
2022/01/29 11:35:24;;;;;;;4.80;3.17;;;;;;;5.95;91.02;100375.55;2915241;81;21050;-68
2022/01/29 11:39:29;;;;;;;22.87;8.90;;;;;;;5.95;90.90;100372.91;2915984;81;20978;-68
2022/01/29 11:43:34;;;;;;;15.03;11.63;;;;;;;6.02;89.87;100353.61;2920119;80;21132;-68
2022/01/29 11:47:45;;;;;;;23.50;10.63;;;;;;;5.94;89.48;100344.81;2967919;80;21598;-69
2022/01/29 11:51:51;;;;;;;13.55;8.35;;;;;;;5.86;89.89;100336.03;2967336;80;21019;-69
2022/01/29 11:55:55;;;;;;;9.55;7.87;;;;;;;5.75;89.67;100320.86;2966124;80;21037;-69
2022/01/29 12:00:20;;;;;;;16.67;10.25;;;;;;;5.74;90.30;100309.06;2967101;80;20998;-69
2022/01/29 12:04:40;;;;;;;12.80;7.87;;;;;;;5.77;90.16;100300.95;2953683;80;21034;-71
2022/01/29 12:09:06;;;;;;;8.33;5.50;;;;;;;5.75;90.92;100294.92;2965173;78;20991;-70
2022/01/29 12:13:14;;;;;;;5.95;4.53;;;;;;;5.72;91.28;100282.78;2966683;80;21065;-69
2022/01/29 12:17:46;;;;;;;10.00;5.83;;;;;;;5.71;91.45;100273.16;2914730;81;21042;-69
2022/01/29 12:21:47;;;;;;;11.50;5.55;;;;;;;5.74;91.60;100262.41;2914590;81;21046;-67
2022/01/29 12:25:56;;;;;;;5.22;4.65;;;;;;;5.72;91.97;100251.11;2915863;81;21050;-67
2022/01/29 12:29:58;;;;;;;6.65;5.10;;;;;;;5.80;91.89;100232.98;2911546;81;21523;-70
2022/01/29 12:34:10;;;;;;;4.05;3.62;;;;;;;5.88;92.51;100223.72;2911199;81;20999;-69
2022/01/29 12:38:16;;;;;;;3.40;1.65;;;;;;;6.02;93.20;100210.53;2911316;81;20999;-68
2022/01/29 12:42:31;;;;;;;2.65;1.32;;;;;;;6.26;94.15;100191.39;2910453;81;21003;-66
2022/01/29 12:46:29;;;;;;;1.75;0.98;;;;;;;6.48;93.75;100188.20;2909056;81;21055;-67
2022/01/29 12:50:31;;;;;;;1.52;1.00;;;;;;;6.64;92.73;100176.11;2910743;81;20999;-66
2022/01/29 12:54:34;;;;;;;2.65;1.52;;;;;;;6.74;92.17;100168.91;2909758;81;21611;-70
2022/01/29 12:58:39;;;;;;;2.85;1.62;;;;;;;6.82;91.95;100173.18;2910354;81;20994;-69
2022/01/29 13:02:41;;;;;;;2.43;0.57;;;;;;;6.88;91.69;100151.63;2910379;81;21034;-69
2022/01/29 13:06:47;;;;;;;1.10;0.90;;;;;;;6.93;91.79;100142.90;2910894;81;21074;-68
2022/01/29 13:10:48;;;;;;;1.82;1.42;;;;;;;6.99;92.15;100130.56;2910490;81;21015;-71
2022/01/29 13:14:52;;;;;;;0.80;0.50;;;;;;;6.90;92.36;100126.38;2910562;80;21058;-68
2022/01/29 13:18:55;;;;;;;1.85;0.93;;;;;;;6.93;92.72;100115.13;2910395;81;20967;-68
2022/01/29 13:22:57;;;;;;;1.85;0.72;;;;;;;6.93;93.19;100105.88;2912087;81;21014;-69
2022/01/29 13:27:10;;;;;;;1.55;0.98;;;;;;;6.96;92.87;100087.61;2911252;81;21066;-69
2022/01/29 13:31:12;;;;;;;3.02;1.42;;;;;;;6.99;92.26;100079.48;2910486;80;21030;-69
2022/01/29 13:35:29;;;;;;;1.65;1.55;;;;;;;6.92;91.63;100049.97;2909895;81;21066;-69
2022/01/29 13:39:47;;;;;;;1.12;0.62;;;;;;;6.90;91.68;100041.77;2909146;81;21002;-70
2022/01/29 13:43:49;;;;;;;1.27;0.72;;;;;;;6.93;92.48;100037.58;2908145;80;21069;-67
2022/01/29 13:48:13;;;;;;;1.60;1.50;;;;;;;6.96;92.15;100030.29;2910602;81;21089;-69
2022/01/29 13:52:15;;;;;;;2.22;1.77;;;;;;;7.00;92.03;100037.53;2909877;81;21021;-67
2022/01/29 13:56:22;;;;;;;3.50;2.47;;;;;;;6.96;91.17;100006.48;2910176;81;21014;-67
2022/01/29 14:00:24;;;;;;;3.05;2.20;;;;;;;7.00;90.96;99993.41;2909604;81;20936;-70
2022/01/29 14:04:32;;;;;;;2.55;1.80;;;;;;;7.00;90.84;99985.47;2908981;81;21022;-69
2022/01/29 14:08:31;;;;;;;4.10;2.95;;;;;;;7.03;90.78;99975.63;2908846;81;21031;-68
2022/01/29 14:12:38;;;;;;;4.05;2.40;;;;;;;7.02;90.92;99967.33;2909085;81;21019;-69
2022/01/29 14:16:39;;;;;;;4.87;2.90;;;;;;;7.08;90.89;99974.84;2950212;80;20996;-72
2022/01/29 14:20:41;;;;;;;5.55;3.20;;;;;;;7.08;90.64;99965.58;2960331;80;21552;-68
2022/01/29 14:24:43;;;;;;;3.67;2.47;;;;;;;7.03;90.35;99939.92;2961167;80;21011;-73
2022/01/29 14:28:45;;;;;;;3.15;2.85;;;;;;;7.13;90.65;99929.88;2961546;78;21434;-74
2022/01/29 14:32:46;;;;;;;4.30;3.37;;;;;;;7.08;90.23;99916.66;2965146;80;21011;-68
2022/01/29 14:36:48;;;;;;;4.53;3.40;;;;;;;7.13;90.28;99914.01;2965821;79;21015;-73
2022/01/29 14:40:51;;;;;;;5.35;3.45;;;;;;;7.12;89.80;99900.91;2966744;80;21101;-69
2022/01/29 14:44:53;;;;;;;6.20;3.17;;;;;;;7.12;89.75;99882.40;2966103;79;21019;-67
2022/01/29 14:48:54;;;;;;;6.53;4.30;;;;;;;7.18;89.62;99891.19;2964928;80;20975;-69
2022/01/29 14:52:56;;;;;;;6.35;4.42;;;;;;;7.14;89.66;99888.41;2964616;80;21383;-73
2022/01/29 14:56:58;;;;;;;7.25;4.03;;;;;;;7.18;89.33;99895.16;2964438;79;21380;-72
2022/01/29 15:00:59;;;;;;;5.65;4.62;;;;;;;7.23;89.45;99884.25;2965266;79;21003;-66
2022/01/29 15:05:03;;;;;;;4.45;4.05;;;;;;;7.24;88.97;99881.47;2966404;80;21508;-69
2022/01/29 15:09:05;;;;;;;5.20;4.40;;;;;;;7.27;88.85;99883.91;2967456;79;20959;-69
2022/01/29 15:13:07;;;;;;;4.25;3.50;;;;;;;7.33;88.71;99867.20;2965912;79;21006;-70
2022/01/29 15:17:08;;;;;;;5.08;4.40;;;;;;;7.38;88.53;99887.08;2915769;79;21038;-69
2022/01/29 15:21:10;;;;;;;6.60;3.30;;;;;;;7.39;88.18;99866.27;2915064;81;20951;-71
2022/01/29 15:25:12;;;;;;;5.67;4.00;;;;;;;7.37;87.71;99857.61;2914892;81;21038;-71
2022/01/29 15:29:14;;;;;;;4.12;3.72;;;;;;;7.45;87.84;99872.88;2916864;81;21089;-70
2022/01/29 15:33:20;;;;;;;5.00;3.60;;;;;;;7.43;87.79;99880.09;2919321;81;20996;-68
2022/01/29 15:37:20;;;;;;;4.10;3.00;;;;;;;7.48;87.19;99872.67;2917759;80;21700;-68
2022/01/29 15:41:21;;;;;;;4.92;3.30;;;;;;;7.47;86.84;99877.60;2919405;81;20985;-70
2022/01/29 15:45:24;;;;;;;4.20;3.20;;;;;;;7.53;86.96;99885.53;2947551;80;21061;-69
2022/01/29 15:49:26;;;;;;;5.00;4.50;;;;;;;7.55;86.61;99864.62;2971229;79;21007;-68
2022/01/29 15:53:28;;;;;;;4.22;3.42;;;;;;;7.51;86.59;99840.67;2971155;79;21018;-69
2022/01/29 15:57:30;;;;;;;4.15;3.37;;;;;;;7.52;86.44;99844.15;2971823;79;21410;-68
2022/01/29 16:01:32;;;;;;;6.33;3.17;;;;;;;7.61;85.93;99834.66;2971052;79;20987;-67
2022/01/29 16:05:36;;;;;;;3.95;3.35;;;;;;;7.52;85.88;99826.95;2969906;79;21398;-69
2022/01/29 16:09:38;;;;;;;5.62;3.15;;;;;;;7.57;85.63;99832.75;2970017;79;21567;-68
2022/01/29 16:13:39;;;;;;;2.92;2.67;;;;;;;7.55;85.35;99831.53;2964746;80;21112;-68
2022/01/29 16:17:41;;;;;;;5.80;3.22;;;;;;;7.57;84.87;99808.44;2918222;80;21027;-68
2022/01/29 16:21:43;;;;;;;6.10;3.72;;;;;;;7.57;84.94;99776.67;2918599;80;20975;-69
2022/01/29 16:25:44;;;;;;;3.50;2.55;;;;;;;7.58;84.19;99793.41;2918307;80;21042;-69
2022/01/29 16:29:48;;;;;;;4.33;3.27;;;;;;;7.64;84.50;99788.09;2918857;80;21082;-68
2022/01/29 16:33:49;;;;;;;4.83;4.17;;;;;;;7.61;84.08;99752.60;2917917;80;21458;-68
2022/01/29 16:37:51;;;;;;;5.47;3.02;;;;;;;7.68;83.74;99754.66;2918735;81;21066;-67
2022/01/29 16:41:53;;;;;;;3.40;3.10;;;;;;;7.64;83.02;99735.16;2918886;81;21530;-68
2022/01/29 16:45:57;;;;;;;3.45;2.35;;;;;;;7.67;83.40;99728.32;2944323;80;21643;-69
2022/01/29 16:49:58;;;;;;;3.87;3.08;;;;;;;7.68;82.74;99713.63;2956422;80;21427;-67
2022/01/29 16:54:00;;;;;;;2.37;2.12;;;;;;;7.71;82.52;99715.20;2955763;80;20988;-67
2022/01/29 16:58:02;;;;;;;3.02;2.33;;;;;;;7.75;82.55;99703.39;2955957;79;21002;-67
2022/01/29 17:02:04;;;;;;;2.80;2.60;;;;;;;7.78;82.85;99708.94;2957399;80;20983;-69
2022/01/29 17:06:05;;;;;;;2.70;2.35;;;;;;;7.79;82.71;99699.53;2957392;80;20976;-67
2022/01/29 17:10:09;;;;;;;4.40;2.17;;;;;;;7.81;82.81;99701.56;2956797;80;21499;-67
2022/01/29 17:14:11;;;;;;;3.10;1.95;;;;;;;7.79;82.76;99678.34;2947230;79;21574;-67
2022/01/29 17:18:12;;;;;;;2.30;2.10;;;;;;;7.82;83.14;99674.63;2918796;81;20967;-66
2022/01/29 17:22:15;;;;;;;2.30;1.80;;;;;;;7.82;83.04;99642.35;2919980;81;20963;-69
2022/01/29 17:26:17;;;;;;;2.10;1.87;;;;;;;7.88;83.44;99656.08;2918408;80;21011;-69
2022/01/29 17:30:19;;;;;;;5.35;2.65;;;;;;;7.85;83.23;99627.53;2915295;80;21106;-68
2022/01/29 17:34:21;;;;;;;2.80;2.08;;;;;;;7.93;83.27;99630.89;2910255;81;21022;-67
2022/01/29 17:38:26;;;;;;;3.92;2.25;;;;;;;7.98;83.55;99629.19;2910215;81;21026;-68
2022/01/29 17:42:28;;;;;;;3.60;3.00;;;;;;;7.99;83.87;99634.84;2909727;81;21019;-67
2022/01/29 17:46:30;;;;;;;4.83;2.70;;;;;;;7.97;84.34;99616.45;2951735;80;21022;-68
2022/01/29 17:50:32;;;;;;;3.17;2.72;;;;;;;7.96;84.35;99604.64;2961374;79;21030;-68
2022/01/29 17:54:34;;;;;;;6.22;3.00;;;;;;;7.96;84.70;99583.45;2961678;79;21031;-68
2022/01/29 17:58:35;;;;;;;2.15;1.95;;;;;;;8.02;84.31;99582.94;2962358;80;21035;-68
2022/01/29 18:02:37;;;;;;;2.90;2.70;;;;;;;8.02;84.23;99577.64;2961843;79;20960;-69
2022/01/29 18:06:39;;;;;;;3.00;2.70;;;;;;;8.04;84.15;99570.91;2962492;80;20980;-69
2022/01/29 18:10:41;;;;;;;2.55;2.35;;;;;;;8.10;84.16;99588.94;2961881;79;21053;-69
2022/01/29 18:14:43;;;;;;;4.12;2.05;;;;;;;8.10;84.31;99554.03;2942436;80;21351;-69
2022/01/29 18:18:45;;;;;;;2.87;2.33;;;;;;;8.17;84.29;99539.80;2910955;81;21002;-69
2022/01/29 18:22:47;;;;;;;3.05;2.10;;;;;;;8.12;84.28;99515.00;2910007;81;21042;-70
2022/01/29 18:26:57;;;;;;;2.72;1.90;;;;;;;8.22;84.42;99538.91;2911159;81;21022;-72
2022/01/29 18:30:53;;;;;;;2.33;2.08;;;;;;;8.17;84.46;99520.39;2910337;81;21038;-71
2022/01/29 18:34:55;;;;;;;2.60;2.27;;;;;;;8.18;84.45;99512.33;2911142;81;21344;-68
2022/01/29 18:38:57;;;;;;;2.12;1.92;;;;;;;8.21;84.20;99502.79;2910306;81;21011;-70
2022/01/29 18:42:58;;;;;;;3.05;2.17;;;;;;;8.22;84.30;99484.59;2910635;81;21499;-68
2022/01/29 18:47:00;;;;;;;3.10;2.17;;;;;;;8.28;84.13;99490.69;2959578;80;20996;-68
2022/01/29 18:51:01;;;;;;;4.10;1.87;;;;;;;8.30;84.28;99507.80;2962451;80;20920;-69
2022/01/29 18:55:05;;;;;;;3.12;1.52;;;;;;;8.33;84.29;99498.25;2962315;79;20995;-69
2022/01/29 18:59:07;;;;;;;2.45;2.25;;;;;;;8.42;84.17;99488.18;2962149;79;21019;-68
2022/01/29 19:03:09;;;;;;;1.85;1.65;;;;;;;8.50;84.32;99462.88;2962474;80;21518;-68
2022/01/29 19:07:11;;;;;;;2.45;2.25;;;;;;;8.54;84.15;99451.03;2961788;80;20991;-68
2022/01/29 19:11:13;;;;;;;2.20;1.70;;;;;;;8.54;84.56;99466.94;2935914;78;21046;-68
2022/01/29 19:15:20;;;;;;;2.90;1.90;;;;;;;8.54;84.89;99436.45;2936980;80;21030;-68
2022/01/29 19:19:23;;;;;;;2.83;1.83;;;;;;;8.64;84.62;99429.86;2961826;79;21505;-69